sensor_id;sensor_type;location;lat;lon;timestamp;P1;durP1;ratioP1;P2;durP2;ratioP2
60239;SDS011;46102;39.012;-7.064;2023-02-28T00:00:28;12.25;;;5.28;;
60239;SDS011;46102;39.012;-7.064;2023-02-28T00:02:29;25.63;;;8.23;;
60239;SDS011;46102;39.012;-7.064;2023-02-28T00:04:29;9.30;;;5.13;;
60239;SDS011;46102;39.012;-7.064;2023-02-28T00:06:30;6.65;;;2.97;;
60239;SDS011;46102;39.012;-7.064;2023-02-28T00:08:31;4.63;;;2.45;;
60239;SDS011;46102;39.012;-7.064;2023-02-28T00:10:31;3.42;;;2.03;;
60239;SDS011;46102;39.012;-7.064;2023-02-28T00:12:33;5.00;;;1.85;;
60239;SDS011;46102;39.012;-7.064;2023-02-28T00:14:34;8.93;;;3.20;;
60239;SDS011;46102;39.012;-7.064;2023-02-28T00:16:35;5.90;;;2.88;;
60239;SDS011;46102;39.012;-7.064;2023-02-28T00:18:36;14.70;;;5.68;;
60239;SDS011;46102;39.012;-7.064;2023-02-28T00:20:37;17.88;;;5.25;;
60239;SDS011;46102;39.012;-7.064;2023-02-28T00:22:39;24.33;;;6.97;;
60239;SDS011;46102;39.012;-7.064;2023-02-28T00:24:41;26.80;;;8.23;;
60239;SDS011;46102;39.012;-7.064;2023-02-28T00:26:41;18.00;;;5.90;;
60239;SDS011;46102;39.012;-7.064;2023-02-28T00:28:42;10.75;;;3.33;;
60239;SDS011;46102;39.012;-7.064;2023-02-28T00:30:43;7.10;;;2.63;;
60239;SDS011;46102;39.012;-7.064;2023-02-28T00:32:44;2.85;;;2.28;;
60239;SDS011;46102;39.012;-7.064;2023-02-28T00:34:45;3.92;;;2.00;;
60239;SDS011;46102;39.012;-7.064;2023-02-28T00:36:45;3.08;;;1.95;;
60239;SDS011;46102;39.012;-7.064;2023-02-28T00:38:49;4.22;;;2.90;;
60239;SDS011;46102;39.012;-7.064;2023-02-28T00:40:49;9.48;;;3.25;;
60239;SDS011;46102;39.012;-7.064;2023-02-28T00:42:50;7.10;;;3.70;;
60239;SDS011;46102;39.012;-7.064;2023-02-28T00:44:51;6.20;;;4.05;;
60239;SDS011;46102;39.012;-7.064;2023-02-28T00:46:52;3.92;;;2.63;;
60239;SDS011;46102;39.012;-7.064;2023-02-28T00:48:58;3.80;;;2.28;;
60239;SDS011;46102;39.012;-7.064;2023-02-28T00:50:59;5.13;;;2.88;;
60239;SDS011;46102;39.012;-7.064;2023-02-28T00:53:00;7.53;;;3.20;;
60239;SDS011;46102;39.012;-7.064;2023-02-28T00:55:01;7.43;;;3.40;;
60239;SDS011;46102;39.012;-7.064;2023-02-28T00:57:01;6.38;;;3.05;;
60239;SDS011;46102;39.012;-7.064;2023-02-28T00:59:02;4.30;;;3.03;;
60239;SDS011;46102;39.012;-7.064;2023-02-28T01:01:03;5.68;;;3.25;;
60239;SDS011;46102;39.012;-7.064;2023-02-28T01:03:04;4.30;;;2.78;;
60239;SDS011;46102;39.012;-7.064;2023-02-28T01:05:05;7.72;;;3.05;;
60239;SDS011;46102;39.012;-7.064;2023-02-28T01:07:06;3.20;;;2.53;;
60239;SDS011;46102;39.012;-7.064;2023-02-28T01:09:07;3.17;;;1.88;;
60239;SDS011;46102;39.012;-7.064;2023-02-28T01:11:10;5.97;;;2.03;;
60239;SDS011;46102;39.012;-7.064;2023-02-28T01:13:14;2.28;;;1.48;;
60239;SDS011;46102;39.012;-7.064;2023-02-28T01:15:15;6.65;;;2.25;;
60239;SDS011;46102;39.012;-7.064;2023-02-28T01:17:15;4.28;;;2.03;;
60239;SDS011;46102;39.012;-7.064;2023-02-28T01:19:16;5.75;;;2.53;;
60239;SDS011;46102;39.012;-7.064;2023-02-28T01:21:18;3.25;;;2.20;;
60239;SDS011;46102;39.012;-7.064;2023-02-28T01:23:20;3.08;;;2.13;;
60239;SDS011;46102;39.012;-7.064;2023-02-28T01:25:23;3.42;;;1.80;;
60239;SDS011;46102;39.012;-7.064;2023-02-28T01:27:24;3.08;;;1.40;;
60239;SDS011;46102;39.012;-7.064;2023-02-28T01:29:26;1.48;;;1.17;;
60239;SDS011;46102;39.012;-7.064;2023-02-28T01:31:27;1.60;;;1.08;;
60239;SDS011;46102;39.012;-7.064;2023-02-28T01:33:28;1.17;;;0.82;;
60239;SDS011;46102;39.012;-7.064;2023-02-28T01:35:31;2.00;;;1.33;;
60239;SDS011;46102;39.012;-7.064;2023-02-28T01:37:33;1.48;;;1.17;;
60239;SDS011;46102;39.012;-7.064;2023-02-28T01:39:34;2.35;;;0.93;;
60239;SDS011;46102;39.012;-7.064;2023-02-28T01:41:35;4.00;;;1.40;;
60239;SDS011;46102;39.012;-7.064;2023-02-28T01:43:58;1.00;;;0.80;;
60239;SDS011;46102;39.012;-7.064;2023-02-28T01:46:06;3.92;;;0.90;;
60239;SDS011;46102;39.012;-7.064;2023-02-28T01:48:07;3.33;;;1.08;;
60239;SDS011;46102;39.012;-7.064;2023-02-28T01:50:10;2.22;;;0.93;;
60239;SDS011;46102;39.012;-7.064;2023-02-28T01:52:15;1.33;;;0.88;;
60239;SDS011;46102;39.012;-7.064;2023-02-28T01:54:20;2.15;;;1.00;;
60239;SDS011;46102;39.012;-7.064;2023-02-28T01:56:26;2.03;;;1.25;;
60239;SDS011;46102;39.012;-7.064;2023-02-28T01:58:30;1.42;;;0.90;;
60239;SDS011;46102;39.012;-7.064;2023-02-28T02:00:31;2.08;;;1.17;;
60239;SDS011;46102;39.012;-7.064;2023-02-28T02:02:32;1.40;;;1.30;;
60239;SDS011;46102;39.012;-7.064;2023-02-28T02:04:36;3.65;;;0.90;;
60239;SDS011;46102;39.012;-7.064;2023-02-28T02:06:42;1.25;;;0.80;;
60239;SDS011;46102;39.012;-7.064;2023-02-28T02:08:45;2.15;;;0.80;;
60239;SDS011;46102;39.012;-7.064;2023-02-28T02:10:54;3.33;;;1.00;;
60239;SDS011;46102;39.012;-7.064;2023-02-28T02:13:05;2.22;;;0.95;;
60239;SDS011;46102;39.012;-7.064;2023-02-28T02:15:16;3.08;;;1.00;;
60239;SDS011;46102;39.012;-7.064;2023-02-28T02:31:57;5.45;;;1.05;;
60239;SDS011;46102;39.012;-7.064;2023-02-28T02:34:54;1.38;;;1.10;;
60239;SDS011;46102;39.012;-7.064;2023-02-28T02:39:06;1.88;;;1.30;;
60239;SDS011;46102;39.012;-7.064;2023-02-28T02:41:18;3.17;;;1.73;;
60239;SDS011;46102;39.012;-7.064;2023-02-28T02:43:27;1.38;;;0.93;;
60239;SDS011;46102;39.012;-7.064;2023-02-28T02:45:39;1.65;;;1.15;;
60239;SDS011;46102;39.012;-7.064;2023-02-28T02:47:45;0.88;;;0.82;;
60239;SDS011;46102;39.012;-7.064;2023-02-28T02:49:49;0.60;;;0.60;;
60239;SDS011;46102;39.012;-7.064;2023-02-28T02:51:52;0.93;;;0.90;;
60239;SDS011;46102;39.012;-7.064;2023-02-28T02:53:57;5.03;;;1.23;;
60239;SDS011;46102;39.012;-7.064;2023-02-28T02:56:01;3.60;;;1.08;;
60239;SDS011;46102;39.012;-7.064;2023-02-28T02:58:07;1.10;;;0.88;;
60239;SDS011;46102;39.012;-7.064;2023-02-28T03:00:10;5.07;;;1.08;;
60239;SDS011;46102;39.012;-7.064;2023-02-28T03:02:14;2.17;;;1.15;;
60239;SDS011;46102;39.012;-7.064;2023-02-28T03:04:18;0.73;;;0.67;;
60239;SDS011;46102;39.012;-7.064;2023-02-28T03:06:21;1.40;;;0.60;;
60239;SDS011;46102;39.012;-7.064;2023-02-28T03:08:22;0.60;;;0.60;;
60239;SDS011;46102;39.012;-7.064;2023-02-28T03:10:27;1.77;;;1.00;;
60239;SDS011;46102;39.012;-7.064;2023-02-28T03:12:41;4.65;;;0.80;;
60239;SDS011;46102;39.012;-7.064;2023-02-28T03:17:31;0.73;;;0.73;;
60239;SDS011;46102;39.012;-7.064;2023-02-28T03:20:07;1.50;;;1.00;;
60239;SDS011;46102;39.012;-7.064;2023-02-28T03:27:09;2.50;;;0.68;;
60239;SDS011;46102;39.012;-7.064;2023-02-28T03:29:28;3.45;;;0.88;;
60239;SDS011;46102;39.012;-7.064;2023-02-28T03:31:50;1.10;;;0.70;;
60239;SDS011;46102;39.012;-7.064;2023-02-28T03:34:00;1.25;;;0.82;;
60239;SDS011;46102;39.012;-7.064;2023-02-28T03:36:10;1.27;;;0.82;;
60239;SDS011;46102;39.012;-7.064;2023-02-28T03:40:46;2.95;;;0.80;;
60239;SDS011;46102;39.012;-7.064;2023-02-28T03:42:51;1.30;;;1.00;;
60239;SDS011;46102;39.012;-7.064;2023-02-28T03:44:58;3.42;;;1.30;;
60239;SDS011;46102;39.012;-7.064;2023-02-28T03:47:04;3.25;;;0.98;;
60239;SDS011;46102;39.012;-7.064;2023-02-28T03:49:25;2.13;;;0.65;;
60239;SDS011;46102;39.012;-7.064;2023-02-28T03:51:31;1.50;;;1.00;;
60239;SDS011;46102;39.012;-7.064;2023-02-28T03:53:37;3.33;;;1.08;;
60239;SDS011;46102;39.012;-7.064;2023-02-28T03:55:55;3.05;;;0.95;;
60239;SDS011;46102;39.012;-7.064;2023-02-28T03:58:01;1.13;;;0.80;;
60239;SDS011;46102;39.012;-7.064;2023-02-28T04:00:21;6.32;;;0.80;;
60239;SDS011;46102;39.012;-7.064;2023-02-28T04:02:30;0.85;;;0.70;;
60239;SDS011;46102;39.012;-7.064;2023-02-28T04:04:31;0.80;;;0.57;;
60239;SDS011;46102;39.012;-7.064;2023-02-28T04:06:32;3.40;;;0.70;;
60239;SDS011;46102;39.012;-7.064;2023-02-28T04:08:34;0.60;;;0.60;;
60239;SDS011;46102;39.012;-7.064;2023-02-28T04:10:35;1.25;;;0.60;;
60239;SDS011;46102;39.012;-7.064;2023-02-28T04:12:35;0.68;;;0.55;;
60239;SDS011;46102;39.012;-7.064;2023-02-28T04:14:36;2.75;;;0.70;;
60239;SDS011;46102;39.012;-7.064;2023-02-28T04:16:38;1.40;;;0.50;;
60239;SDS011;46102;39.012;-7.064;2023-02-28T04:18:41;0.73;;;0.50;;
60239;SDS011;46102;39.012;-7.064;2023-02-28T04:20:45;1.58;;;0.52;;
60239;SDS011;46102;39.012;-7.064;2023-02-28T04:22:46;0.50;;;0.50;;
60239;SDS011;46102;39.012;-7.064;2023-02-28T04:24:46;3.25;;;0.80;;
60239;SDS011;46102;39.012;-7.064;2023-02-28T04:26:48;1.15;;;0.60;;
60239;SDS011;46102;39.012;-7.064;2023-02-28T04:28:51;2.15;;;0.63;;
60239;SDS011;46102;39.012;-7.064;2023-02-28T04:30:56;1.17;;;0.90;;
60239;SDS011;46102;39.012;-7.064;2023-02-28T04:32:58;1.80;;;0.80;;
60239;SDS011;46102;39.012;-7.064;2023-02-28T04:35:00;1.60;;;0.82;;
60239;SDS011;46102;39.012;-7.064;2023-02-28T04:37:01;1.10;;;0.75;;
60239;SDS011;46102;39.012;-7.064;2023-02-28T04:39:03;2.45;;;0.63;;
60239;SDS011;46102;39.012;-7.064;2023-02-28T04:41:04;1.73;;;0.75;;
60239;SDS011;46102;39.012;-7.064;2023-02-28T04:43:05;2.25;;;0.95;;
60239;SDS011;46102;39.012;-7.064;2023-02-28T04:45:06;5.95;;;1.60;;
60239;SDS011;46102;39.012;-7.064;2023-02-28T04:47:10;4.13;;;1.30;;
60239;SDS011;46102;39.012;-7.064;2023-02-28T04:49:11;1.02;;;0.70;;
60239;SDS011;46102;39.012;-7.064;2023-02-28T04:51:14;2.38;;;0.90;;
60239;SDS011;46102;39.012;-7.064;2023-02-28T04:53:15;0.85;;;0.77;;
60239;SDS011;46102;39.012;-7.064;2023-02-28T04:55:17;2.95;;;0.70;;
60239;SDS011;46102;39.012;-7.064;2023-02-28T04:57:17;2.88;;;1.27;;
60239;SDS011;46102;39.012;-7.064;2023-02-28T04:59:18;0.73;;;0.73;;
60239;SDS011;46102;39.012;-7.064;2023-02-28T05:01:23;2.47;;;1.10;;
60239;SDS011;46102;39.012;-7.064;2023-02-28T05:03:26;2.88;;;0.90;;
60239;SDS011;46102;39.012;-7.064;2023-02-28T05:05:27;0.70;;;0.70;;
60239;SDS011;46102;39.012;-7.064;2023-02-28T05:07:28;1.83;;;1.02;;
60239;SDS011;46102;39.012;-7.064;2023-02-28T05:09:29;1.92;;;1.17;;
60239;SDS011;46102;39.012;-7.064;2023-02-28T05:11:30;1.48;;;1.15;;
60239;SDS011;46102;39.012;-7.064;2023-02-28T05:13:36;1.08;;;0.75;;
60239;SDS011;46102;39.012;-7.064;2023-02-28T05:15:36;2.13;;;0.90;;
60239;SDS011;46102;39.012;-7.064;2023-02-28T05:17:37;1.60;;;1.02;;
60239;SDS011;46102;39.012;-7.064;2023-02-28T05:19:38;1.00;;;0.95;;
60239;SDS011;46102;39.012;-7.064;2023-02-28T05:21:40;0.85;;;0.85;;
60239;SDS011;46102;39.012;-7.064;2023-02-28T05:23:48;1.33;;;0.50;;
60239;SDS011;46102;39.012;-7.064;2023-02-28T05:25:48;2.95;;;0.90;;
60239;SDS011;46102;39.012;-7.064;2023-02-28T05:27:49;1.52;;;0.63;;
60239;SDS011;46102;39.012;-7.064;2023-02-28T05:29:50;1.05;;;0.70;;
60239;SDS011;46102;39.012;-7.064;2023-02-28T05:31:51;1.75;;;0.90;;
60239;SDS011;46102;39.012;-7.064;2023-02-28T05:33:52;3.08;;;0.70;;
60239;SDS011;46102;39.012;-7.064;2023-02-28T05:35:53;1.35;;;0.57;;
60239;SDS011;46102;39.012;-7.064;2023-02-28T05:37:54;3.92;;;0.90;;
60239;SDS011;46102;39.012;-7.064;2023-02-28T05:39:54;0.68;;;0.43;;
60239;SDS011;46102;39.012;-7.064;2023-02-28T05:41:55;0.57;;;0.57;;
60239;SDS011;46102;39.012;-7.064;2023-02-28T05:43:57;0.80;;;0.80;;
60239;SDS011;46102;39.012;-7.064;2023-02-28T05:45:58;4.22;;;1.45;;
60239;SDS011;46102;39.012;-7.064;2023-02-28T05:47:58;4.97;;;1.30;;
60239;SDS011;46102;39.012;-7.064;2023-02-28T05:49:59;2.78;;;1.67;;
60239;SDS011;46102;39.012;-7.064;2023-02-28T05:52:01;2.08;;;1.88;;
60239;SDS011;46102;39.012;-7.064;2023-02-28T05:54:01;2.75;;;1.30;;
60239;SDS011;46102;39.012;-7.064;2023-02-28T05:56:03;2.05;;;1.48;;
60239;SDS011;46102;39.012;-7.064;2023-02-28T05:58:04;2.22;;;0.88;;
60239;SDS011;46102;39.012;-7.064;2023-02-28T06:00:05;2.75;;;0.80;;
60239;SDS011;46102;39.012;-7.064;2023-02-28T06:02:13;4.18;;;0.70;;
60239;SDS011;46102;39.012;-7.064;2023-02-28T06:04:17;3.50;;;1.02;;
60239;SDS011;46102;39.012;-7.064;2023-02-28T06:06:19;0.90;;;0.50;;
60239;SDS011;46102;39.012;-7.064;2023-02-28T06:08:20;0.60;;;0.60;;
60239;SDS011;46102;39.012;-7.064;2023-02-28T06:10:21;0.88;;;0.80;;
60239;SDS011;46102;39.012;-7.064;2023-02-28T06:12:22;5.35;;;1.38;;
60239;SDS011;46102;39.012;-7.064;2023-02-28T06:14:22;1.00;;;0.80;;
60239;SDS011;46102;39.012;-7.064;2023-02-28T06:16:23;1.33;;;0.68;;
60239;SDS011;46102;39.012;-7.064;2023-02-28T06:18:25;4.90;;;1.20;;
60239;SDS011;46102;39.012;-7.064;2023-02-28T06:20:26;1.20;;;1.10;;
60239;SDS011;46102;39.012;-7.064;2023-02-28T06:22:29;3.83;;;1.23;;
60239;SDS011;46102;39.012;-7.064;2023-02-28T06:24:31;1.10;;;1.00;;
60239;SDS011;46102;39.012;-7.064;2023-02-28T06:26:32;0.85;;;0.70;;
60239;SDS011;46102;39.012;-7.064;2023-02-28T06:28:33;2.65;;;0.80;;
60239;SDS011;46102;39.012;-7.064;2023-02-28T06:30:34;4.30;;;1.20;;
60239;SDS011;46102;39.012;-7.064;2023-02-28T06:32:34;1.02;;;1.00;;
60239;SDS011;46102;39.012;-7.064;2023-02-28T06:34:36;8.10;;;1.20;;
60239;SDS011;46102;39.012;-7.064;2023-02-28T06:36:38;1.02;;;0.90;;
60239;SDS011;46102;39.012;-7.064;2023-02-28T06:38:41;1.98;;;1.10;;
60239;SDS011;46102;39.012;-7.064;2023-02-28T06:40:42;1.67;;;0.93;;
60239;SDS011;46102;39.012;-7.064;2023-02-28T06:42:44;1.85;;;1.17;;
60239;SDS011;46102;39.012;-7.064;2023-02-28T06:44:44;1.48;;;0.60;;
60239;SDS011;46102;39.012;-7.064;2023-02-28T06:46:45;0.50;;;0.40;;
60239;SDS011;46102;39.012;-7.064;2023-02-28T06:48:46;1.13;;;1.08;;
60239;SDS011;46102;39.012;-7.064;2023-02-28T06:50:47;4.57;;;1.80;;
60239;SDS011;46102;39.012;-7.064;2023-02-28T06:52:48;1.92;;;1.17;;
60239;SDS011;46102;39.012;-7.064;2023-02-28T06:54:48;1.05;;;0.73;;
60239;SDS011;46102;39.012;-7.064;2023-02-28T06:56:59;2.22;;;0.82;;
60239;SDS011;46102;39.012;-7.064;2023-02-28T06:59:00;2.70;;;0.80;;
60239;SDS011;46102;39.012;-7.064;2023-02-28T07:01:01;1.17;;;0.93;;
60239;SDS011;46102;39.012;-7.064;2023-02-28T07:03:02;8.23;;;1.98;;
60239;SDS011;46102;39.012;-7.064;2023-02-28T07:05:04;8.55;;;1.42;;
60239;SDS011;46102;39.012;-7.064;2023-02-28T07:07:05;1.08;;;0.93;;
60239;SDS011;46102;39.012;-7.064;2023-02-28T07:09:06;5.50;;;0.95;;
60239;SDS011;46102;39.012;-7.064;2023-02-28T07:11:06;1.30;;;0.65;;
60239;SDS011;46102;39.012;-7.064;2023-02-28T07:13:08;1.63;;;1.02;;
60239;SDS011;46102;39.012;-7.064;2023-02-28T07:15:09;2.30;;;0.88;;
60239;SDS011;46102;39.012;-7.064;2023-02-28T07:17:10;0.90;;;0.90;;
60239;SDS011;46102;39.012;-7.064;2023-02-28T07:19:12;1.33;;;1.08;;
60239;SDS011;46102;39.012;-7.064;2023-02-28T07:21:13;1.88;;;0.80;;
60239;SDS011;46102;39.012;-7.064;2023-02-28T07:23:14;2.05;;;0.50;;
60239;SDS011;46102;39.012;-7.064;2023-02-28T07:25:15;1.95;;;0.52;;
60239;SDS011;46102;39.012;-7.064;2023-02-28T07:27:16;0.70;;;0.60;;
60239;SDS011;46102;39.012;-7.064;2023-02-28T07:29:23;1.17;;;0.75;;
60239;SDS011;46102;39.012;-7.064;2023-02-28T07:31:24;0.77;;;0.60;;
60239;SDS011;46102;39.012;-7.064;2023-02-28T07:33:25;5.60;;;2.05;;
60239;SDS011;46102;39.012;-7.064;2023-02-28T07:35:26;4.85;;;2.10;;
60239;SDS011;46102;39.012;-7.064;2023-02-28T07:37:27;6.80;;;2.53;;
60239;SDS011;46102;39.012;-7.064;2023-02-28T07:39:27;3.90;;;2.17;;
60239;SDS011;46102;39.012;-7.064;2023-02-28T07:41:28;4.78;;;1.80;;
60239;SDS011;46102;39.012;-7.064;2023-02-28T07:43:30;2.78;;;1.73;;
60239;SDS011;46102;39.012;-7.064;2023-02-28T07:45:32;1.50;;;1.40;;
60239;SDS011;46102;39.012;-7.064;2023-02-28T07:47:34;4.57;;;1.63;;
60239;SDS011;46102;39.012;-7.064;2023-02-28T07:49:36;2.30;;;1.98;;
60239;SDS011;46102;39.012;-7.064;2023-02-28T07:51:39;2.97;;;2.42;;
60239;SDS011;46102;39.012;-7.064;2023-02-28T07:53:39;5.82;;;1.60;;
60239;SDS011;46102;39.012;-7.064;2023-02-28T07:55:40;7.68;;;3.80;;
60239;SDS011;46102;39.012;-7.064;2023-02-28T07:57:41;1.33;;;1.20;;
60239;SDS011;46102;39.012;-7.064;2023-02-28T07:59:42;1.80;;;0.80;;
60239;SDS011;46102;39.012;-7.064;2023-02-28T08:01:42;2.95;;;0.95;;
60239;SDS011;46102;39.012;-7.064;2023-02-28T08:03:44;0.95;;;0.90;;
60239;SDS011;46102;39.012;-7.064;2023-02-28T08:05:45;4.75;;;0.88;;
60239;SDS011;46102;39.012;-7.064;2023-02-28T08:07:48;0.70;;;0.70;;
60239;SDS011;46102;39.012;-7.064;2023-02-28T08:09:50;1.90;;;0.85;;
60239;SDS011;46102;39.012;-7.064;2023-02-28T08:11:50;1.05;;;1.05;;
60239;SDS011;46102;39.012;-7.064;2023-02-28T08:13:51;4.22;;;1.63;;
60239;SDS011;46102;39.012;-7.064;2023-02-28T08:15:53;2.35;;;2.08;;
60239;SDS011;46102;39.012;-7.064;2023-02-28T08:17:55;4.72;;;1.55;;
60239;SDS011;46102;39.012;-7.064;2023-02-28T08:19:58;1.60;;;1.50;;
60239;SDS011;46102;39.012;-7.064;2023-02-28T08:21:59;4.80;;;2.00;;
60239;SDS011;46102;39.012;-7.064;2023-02-28T08:24:00;3.17;;;1.98;;
60239;SDS011;46102;39.012;-7.064;2023-02-28T08:26:01;4.70;;;1.80;;
60239;SDS011;46102;39.012;-7.064;2023-02-28T08:28:02;3.38;;;1.67;;
60239;SDS011;46102;39.012;-7.064;2023-02-28T08:30:04;2.90;;;1.80;;
60239;SDS011;46102;39.012;-7.064;2023-02-28T08:32:05;2.85;;;1.52;;
60239;SDS011;46102;39.012;-7.064;2023-02-28T08:34:09;3.47;;;1.33;;
60239;SDS011;46102;39.012;-7.064;2023-02-28T08:36:11;4.82;;;1.45;;
60239;SDS011;46102;39.012;-7.064;2023-02-28T08:38:12;6.65;;;1.50;;
60239;SDS011;46102;39.012;-7.064;2023-02-28T08:40:13;3.03;;;1.35;;
60239;SDS011;46102;39.012;-7.064;2023-02-28T08:42:21;1.67;;;0.80;;
60239;SDS011;46102;39.012;-7.064;2023-02-28T08:44:42;1.40;;;0.90;;
60239;SDS011;46102;39.012;-7.064;2023-02-28T08:47:00;1.05;;;0.95;;
60239;SDS011;46102;39.012;-7.064;2023-02-28T08:49:04;3.70;;;2.30;;
60239;SDS011;46102;39.012;-7.064;2023-02-28T08:51:07;1.15;;;0.93;;
60239;SDS011;46102;39.012;-7.064;2023-02-28T08:53:10;1.30;;;1.20;;
60239;SDS011;46102;39.012;-7.064;2023-02-28T08:55:10;1.00;;;0.90;;
60239;SDS011;46102;39.012;-7.064;2023-02-28T08:57:11;5.28;;;2.78;;
60239;SDS011;46102;39.012;-7.064;2023-02-28T08:59:12;6.03;;;1.55;;
60239;SDS011;46102;39.012;-7.064;2023-02-28T09:01:15;2.78;;;2.17;;
60239;SDS011;46102;39.012;-7.064;2023-02-28T09:03:18;2.15;;;1.55;;
60239;SDS011;46102;39.012;-7.064;2023-02-28T09:05:18;5.07;;;2.53;;
60239;SDS011;46102;39.012;-7.064;2023-02-28T09:07:19;2.70;;;1.50;;
60239;SDS011;46102;39.012;-7.064;2023-02-28T09:09:20;3.40;;;1.27;;
60239;SDS011;46102;39.012;-7.064;2023-02-28T09:11:21;9.80;;;4.15;;
60239;SDS011;46102;39.012;-7.064;2023-02-28T09:13:21;4.47;;;1.73;;
60239;SDS011;46102;39.012;-7.064;2023-02-28T09:15:22;1.98;;;1.77;;
60239;SDS011;46102;39.012;-7.064;2023-02-28T09:17:23;1.13;;;1.05;;
60239;SDS011;46102;39.012;-7.064;2023-02-28T09:19:24;7.30;;;1.45;;
60239;SDS011;46102;39.012;-7.064;2023-02-28T09:21:25;2.00;;;1.40;;
60239;SDS011;46102;39.012;-7.064;2023-02-28T09:23:26;3.90;;;1.88;;
60239;SDS011;46102;39.012;-7.064;2023-02-28T09:25:27;4.70;;;1.85;;
60239;SDS011;46102;39.012;-7.064;2023-02-28T09:27:27;1.23;;;1.13;;
60239;SDS011;46102;39.012;-7.064;2023-02-28T09:29:28;3.53;;;1.08;;
60239;SDS011;46102;39.012;-7.064;2023-02-28T09:31:29;1.50;;;0.90;;
60239;SDS011;46102;39.012;-7.064;2023-02-28T09:33:30;5.50;;;1.63;;
60239;SDS011;46102;39.012;-7.064;2023-02-28T09:35:30;3.05;;;2.20;;
60239;SDS011;46102;39.012;-7.064;2023-02-28T09:37:31;3.83;;;1.75;;
60239;SDS011;46102;39.012;-7.064;2023-02-28T09:39:32;5.75;;;3.30;;
60239;SDS011;46102;39.012;-7.064;2023-02-28T09:41:41;6.55;;;2.53;;
60239;SDS011;46102;39.012;-7.064;2023-02-28T09:43:52;3.70;;;2.33;;
60239;SDS011;46102;39.012;-7.064;2023-02-28T09:46:00;3.67;;;2.50;;
60239;SDS011;46102;39.012;-7.064;2023-02-28T09:48:14;2.10;;;1.90;;
60239;SDS011;46102;39.012;-7.064;2023-02-28T09:52:38;2.15;;;1.48;;
60239;SDS011;46102;39.012;-7.064;2023-02-28T09:54:39;3.90;;;2.03;;
60239;SDS011;46102;39.012;-7.064;2023-02-28T09:56:40;1.02;;;1.02;;
60239;SDS011;46102;39.012;-7.064;2023-02-28T09:58:51;1.10;;;0.82;;
60239;SDS011;46102;39.012;-7.064;2023-02-28T10:01:03;3.47;;;2.25;;
60239;SDS011;46102;39.012;-7.064;2023-02-28T10:05:37;4.47;;;2.30;;
60239;SDS011;46102;39.012;-7.064;2023-02-28T10:10:18;1.38;;;1.02;;
60239;SDS011;46102;39.012;-7.064;2023-02-28T10:12:24;1.73;;;1.60;;
60239;SDS011;46102;39.012;-7.064;2023-02-28T10:14:28;3.08;;;1.30;;
60239;SDS011;46102;39.012;-7.064;2023-02-28T10:16:40;1.80;;;1.38;;
60239;SDS011;46102;39.012;-7.064;2023-02-28T10:20:54;2.78;;;1.30;;
60239;SDS011;46102;39.012;-7.064;2023-02-28T10:25:19;2.25;;;1.48;;
60239;SDS011;46102;39.012;-7.064;2023-02-28T10:27:26;3.47;;;0.85;;
60239;SDS011;46102;39.012;-7.064;2023-02-28T10:29:31;1.42;;;1.27;;
60239;SDS011;46102;39.012;-7.064;2023-02-28T10:31:33;1.10;;;1.10;;
60239;SDS011;46102;39.012;-7.064;2023-02-28T10:33:39;1.85;;;1.58;;
60239;SDS011;46102;39.012;-7.064;2023-02-28T10:35:40;1.77;;;1.52;;
60239;SDS011;46102;39.012;-7.064;2023-02-28T10:37:41;1.20;;;1.10;;
60239;SDS011;46102;39.012;-7.064;2023-02-28T10:39:44;4.38;;;1.55;;
60239;SDS011;46102;39.012;-7.064;2023-02-28T10:41:48;1.70;;;1.50;;
60239;SDS011;46102;39.012;-7.064;2023-02-28T10:43:49;3.08;;;1.27;;
60239;SDS011;46102;39.012;-7.064;2023-02-28T10:47:59;1.20;;;1.10;;
60239;SDS011;46102;39.012;-7.064;2023-02-28T10:50:04;1.98;;;0.90;;
60239;SDS011;46102;39.012;-7.064;2023-02-28T10:52:08;1.00;;;1.00;;
60239;SDS011;46102;39.012;-7.064;2023-02-28T10:56:19;2.70;;;1.10;;
60239;SDS011;46102;39.012;-7.064;2023-02-28T10:58:23;1.08;;;1.02;;
60239;SDS011;46102;39.012;-7.064;2023-02-28T11:00:25;1.80;;;1.17;;
60239;SDS011;46102;39.012;-7.064;2023-02-28T11:02:35;1.95;;;1.02;;
60239;SDS011;46102;39.012;-7.064;2023-02-28T11:04:38;1.38;;;0.98;;
60239;SDS011;46102;39.012;-7.064;2023-02-28T11:06:40;0.77;;;0.73;;
60239;SDS011;46102;39.012;-7.064;2023-02-28T11:08:49;2.17;;;0.93;;
60239;SDS011;46102;39.012;-7.064;2023-02-28T11:10:55;1.60;;;1.20;;
60239;SDS011;46102;39.012;-7.064;2023-02-28T11:12:58;2.80;;;1.52;;
60239;SDS011;46102;39.012;-7.064;2023-02-28T11:15:00;0.85;;;0.85;;
60239;SDS011;46102;39.012;-7.064;2023-02-28T11:17:19;0.90;;;0.90;;
60239;SDS011;46102;39.012;-7.064;2023-02-28T11:19:25;1.00;;;1.00;;
60239;SDS011;46102;39.012;-7.064;2023-02-28T11:23:34;1.75;;;0.95;;
60239;SDS011;46102;39.012;-7.064;2023-02-28T11:25:37;1.08;;;1.00;;
60239;SDS011;46102;39.012;-7.064;2023-02-28T11:27:44;2.70;;;1.02;;
60239;SDS011;46102;39.012;-7.064;2023-02-28T11:29:50;4.10;;;2.65;;
60239;SDS011;46102;39.012;-7.064;2023-02-28T11:32:01;2.42;;;1.33;;
60239;SDS011;46102;39.012;-7.064;2023-02-28T11:34:22;1.20;;;0.80;;
60239;SDS011;46102;39.012;-7.064;2023-02-28T11:36:26;0.75;;;0.75;;
60239;SDS011;46102;39.012;-7.064;2023-02-28T11:38:32;0.50;;;0.50;;
60239;SDS011;46102;39.012;-7.064;2023-02-28T11:40:42;1.27;;;0.80;;
60239;SDS011;46102;39.012;-7.064;2023-02-28T11:43:04;2.10;;;1.20;;
60239;SDS011;46102;39.012;-7.064;2023-02-28T11:51:55;1.58;;;0.90;;
60239;SDS011;46102;39.012;-7.064;2023-02-28T12:05:31;1.42;;;1.05;;
60239;SDS011;46102;39.012;-7.064;2023-02-28T12:14:50;5.47;;;1.35;;
60239;SDS011;46102;39.012;-7.064;2023-02-28T12:17:10;1.42;;;1.13;;
60239;SDS011;46102;39.012;-7.064;2023-02-28T12:26:09;4.47;;;2.88;;
60239;SDS011;46102;39.012;-7.064;2023-02-28T12:28:20;1.48;;;0.85;;
60239;SDS011;46102;39.012;-7.064;2023-02-28T12:30:25;3.03;;;0.70;;
60239;SDS011;46102;39.012;-7.064;2023-02-28T12:32:37;3.30;;;1.00;;
60239;SDS011;46102;39.012;-7.064;2023-02-28T12:34:48;2.17;;;0.80;;
60239;SDS011;46102;39.012;-7.064;2023-02-28T12:36:52;3.63;;;2.60;;
60239;SDS011;46102;39.012;-7.064;2023-02-28T12:39:01;4.05;;;1.23;;
60239;SDS011;46102;39.012;-7.064;2023-02-28T12:41:16;1.70;;;1.40;;
60239;SDS011;46102;39.012;-7.064;2023-02-28T12:43:25;1.00;;;1.00;;
60239;SDS011;46102;39.012;-7.064;2023-02-28T12:45:39;2.10;;;1.00;;
60239;SDS011;46102;39.012;-7.064;2023-02-28T12:47:44;7.57;;;1.20;;
60239;SDS011;46102;39.012;-7.064;2023-02-28T12:52:01;2.10;;;0.65;;
60239;SDS011;46102;39.012;-7.064;2023-02-28T13:00:37;0.73;;;0.63;;
60239;SDS011;46102;39.012;-7.064;2023-02-28T13:02:59;4.47;;;2.90;;
60239;SDS011;46102;39.012;-7.064;2023-02-28T13:09:53;1.67;;;1.17;;
60239;SDS011;46102;39.012;-7.064;2023-02-28T13:11:56;1.67;;;0.98;;
60239;SDS011;46102;39.012;-7.064;2023-02-28T13:13:59;2.88;;;1.27;;
60239;SDS011;46102;39.012;-7.064;2023-02-28T13:16:04;1.13;;;1.05;;
60239;SDS011;46102;39.012;-7.064;2023-02-28T13:18:20;1.42;;;1.13;;
60239;SDS011;46102;39.012;-7.064;2023-02-28T13:24:46;1.13;;;1.00;;
60239;SDS011;46102;39.012;-7.064;2023-02-28T13:29:41;1.25;;;0.75;;
60239;SDS011;46102;39.012;-7.064;2023-02-28T13:34:13;1.42;;;0.75;;
60239;SDS011;46102;39.012;-7.064;2023-02-28T13:38:23;1.40;;;1.10;;
60239;SDS011;46102;39.012;-7.064;2023-02-28T13:40:32;1.20;;;0.70;;
60239;SDS011;46102;39.012;-7.064;2023-02-28T13:45:27;2.13;;;0.90;;
60239;SDS011;46102;39.012;-7.064;2023-02-28T13:47:19;1.35;;;1.02;;
60239;SDS011;46102;39.012;-7.064;2023-02-28T13:53:53;1.42;;;1.38;;
60239;SDS011;46102;39.012;-7.064;2023-02-28T14:05:15;1.10;;;0.77;;
60239;SDS011;46102;39.012;-7.064;2023-02-28T14:07:21;0.90;;;0.60;;
60239;SDS011;46102;39.012;-7.064;2023-02-28T14:09:29;0.98;;;0.90;;
60239;SDS011;46102;39.012;-7.064;2023-02-28T14:11:36;0.40;;;0.40;;
60239;SDS011;46102;39.012;-7.064;2023-02-28T14:13:41;2.75;;;1.33;;